sensor_id;sensor_type;location;lat;lon;timestamp;pressure;altitude;pressure_sealevel;temperature;humidity
57094;BME280;42970;50.996;3.706;2023-04-15T00:02:13;74032.81;;;-146.65;63.37
57094;BME280;42970;50.996;3.706;2023-04-15T00:04:39;74057.00;;;-146.65;63.49
57094;BME280;42970;50.996;3.706;2023-04-15T00:07:04;74032.81;;;-146.65;64.05
57094;BME280;42970;50.996;3.706;2023-04-15T00:09:29;74052.97;;;-146.65;63.17
57094;BME280;42970;50.996;3.706;2023-04-15T00:11:55;74077.16;;;-146.65;63.87
57094;BME280;42970;50.996;3.706;2023-04-15T00:14:20;74085.22;;;-146.65;63.27
57094;BME280;42970;50.996;3.706;2023-04-15T00:16:46;74081.19;;;-146.65;64.43
57094;BME280;42970;50.996;3.706;2023-04-15T00:19:11;74079.19;;;-146.65;65.24
57094;BME280;42970;50.996;3.706;2023-04-15T00:21:37;74077.16;;;-146.65;65.35
57094;BME280;42970;50.996;3.706;2023-04-15T00:24:02;74093.31;;;-146.65;65.58
57094;BME280;42970;50.996;3.706;2023-04-15T00:26:27;74107.41;;;-146.65;65.86
57094;BME280;42970;50.996;3.706;2023-04-15T00:28:53;74079.19;;;-146.65;66.14
57094;BME280;42970;50.996;3.706;2023-04-15T00:31:18;74089.25;;;-146.65;63.96
57094;BME280;42970;50.996;3.706;2023-04-15T00:33:43;74091.28;;;-146.65;64.83
57094;BME280;42970;50.996;3.706;2023-04-15T00:36:09;74091.28;;;-146.65;66.33
57094;BME280;42970;50.996;3.706;2023-04-15T00:38:36;74103.38;;;-146.65;66.79
57094;BME280;42970;50.996;3.706;2023-04-15T00:41:02;74131.59;;;-146.65;67.91
57094;BME280;42970;50.996;3.706;2023-04-15T00:43:27;74113.47;;;-146.65;69.50
57094;BME280;42970;50.996;3.706;2023-04-15T00:45:53;74099.34;;;-146.65;68.77
57094;BME280;42970;50.996;3.706;2023-04-15T00:48:21;74069.09;;;-146.65;67.56
57094;BME280;42970;50.996;3.706;2023-04-15T00:50:47;74103.38;;;-146.65;66.71
57094;BME280;42970;50.996;3.706;2023-04-15T00:53:13;74107.41;;;-146.65;66.40
57094;BME280;42970;50.996;3.706;2023-04-15T00:55:38;74095.31;;;-146.65;66.45
57094;BME280;42970;50.996;3.706;2023-04-15T00:58:04;74113.47;;;-146.65;67.33
57094;BME280;42970;50.996;3.706;2023-04-15T01:00:29;74117.50;;;-146.65;67.55
57094;BME280;42970;50.996;3.706;2023-04-15T01:02:55;74101.38;;;-146.65;67.82
57094;BME280;42970;50.996;3.706;2023-04-15T01:05:20;74101.38;;;-146.65;68.18
57094;BME280;42970;50.996;3.706;2023-04-15T01:07:46;74097.34;;;-146.65;68.58
57094;BME280;42970;50.996;3.706;2023-04-15T01:10:12;74105.41;;;-146.65;68.99
57094;BME280;42970;50.996;3.706;2023-04-15T01:12:37;74093.31;;;-146.65;68.87
57094;BME280;42970;50.996;3.706;2023-04-15T01:15:03;74105.41;;;-146.65;69.28
57094;BME280;42970;50.996;3.706;2023-04-15T01:17:29;74073.13;;;-146.65;69.25
57094;BME280;42970;50.996;3.706;2023-04-15T01:19:54;74087.25;;;-146.65;69.24
57094;BME280;42970;50.996;3.706;2023-04-15T01:22:21;74125.56;;;-146.65;69.68
57094;BME280;42970;50.996;3.706;2023-04-15T01:24:49;74107.41;;;-146.65;69.45
57094;BME280;42970;50.996;3.706;2023-04-15T01:27:16;74141.69;;;-146.65;70.18
57094;BME280;42970;50.996;3.706;2023-04-15T01:29:41;74145.72;;;-146.65;68.99
57094;BME280;42970;50.996;3.706;2023-04-15T01:32:07;74149.75;;;-146.65;69.67
57094;BME280;42970;50.996;3.706;2023-04-15T01:34:32;74119.50;;;-146.65;68.82
57094;BME280;42970;50.996;3.706;2023-04-15T01:36:57;74097.34;;;-146.65;68.78
57094;BME280;42970;50.996;3.706;2023-04-15T01:39:23;74052.97;;;-146.65;69.12
57094;BME280;42970;50.996;3.706;2023-04-15T01:41:48;74125.56;;;-146.65;69.53
57094;BME280;42970;50.996;3.706;2023-04-15T01:44:13;74184.03;;;-146.65;70.55
57094;BME280;42970;50.996;3.706;2023-04-15T01:46:38;74210.25;;;-146.65;71.85
57094;BME280;42970;50.996;3.706;2023-04-15T01:49:04;74186.06;;;-146.65;71.94
57094;BME280;42970;50.996;3.706;2023-04-15T01:51:29;74177.97;;;-146.65;71.00
57094;BME280;42970;50.996;3.706;2023-04-15T01:53:54;74165.88;;;-146.65;69.77
57094;BME280;42970;50.996;3.706;2023-04-15T01:56:21;74234.44;;;-146.65;70.33
57094;BME280;42970;50.996;3.706;2023-04-15T01:58:46;74254.59;;;-146.65;70.64
57094;BME280;42970;50.996;3.706;2023-04-15T02:01:11;74224.34;;;-146.65;70.42
57094;BME280;42970;50.996;3.706;2023-04-15T02:03:37;74212.25;;;-146.65;69.95
57094;BME280;42970;50.996;3.706;2023-04-15T02:06:03;74214.28;;;-146.65;71.11
57094;BME280;42970;50.996;3.706;2023-04-15T02:08:28;74210.25;;;-146.65;71.46
57094;BME280;42970;50.996;3.706;2023-04-15T02:10:54;74214.28;;;-146.65;70.39
57094;BME280;42970;50.996;3.706;2023-04-15T02:13:19;74171.94;;;-146.65;69.97
57094;BME280;42970;50.996;3.706;2023-04-15T02:15:48;74210.25;;;-146.65;70.71
57094;BME280;42970;50.996;3.706;2023-04-15T02:18:14;74208.22;;;-146.65;70.32
57094;BME280;42970;50.996;3.706;2023-04-15T02:20:39;74238.47;;;-146.65;70.94
57094;BME280;42970;50.996;3.706;2023-04-15T02:23:04;74286.88;;;-146.65;70.71
57094;BME280;42970;50.996;3.706;2023-04-15T02:25:31;74242.50;;;-146.65;71.45
57094;BME280;42970;50.996;3.706;2023-04-15T02:27:56;74214.28;;;-146.65;71.11
57094;BME280;42970;50.996;3.706;2023-04-15T02:30:22;74230.41;;;-146.65;71.62
57094;BME280;42970;50.996;3.706;2023-04-15T02:32:48;74266.69;;;-146.65;72.06
57094;BME280;42970;50.996;3.706;2023-04-15T02:35:13;74298.97;;;-146.65;72.54
57094;BME280;42970;50.996;3.706;2023-04-15T02:37:38;74303.00;;;-146.65;73.20
57094;BME280;42970;50.996;3.706;2023-04-15T02:40:09;74315.09;;;-146.65;73.53
57094;BME280;42970;50.996;3.706;2023-04-15T02:42:38;74300.97;;;-146.65;73.53
57094;BME280;42970;50.996;3.706;2023-04-15T02:45:04;74331.22;;;-146.65;73.77
57094;BME280;42970;50.996;3.706;2023-04-15T02:47:29;74329.22;;;-146.65;73.96
57094;BME280;42970;50.996;3.706;2023-04-15T02:49:55;74315.09;;;-146.65;73.94
57094;BME280;42970;50.996;3.706;2023-04-15T02:52:23;74365.50;;;-146.65;74.68
57094;BME280;42970;50.996;3.706;2023-04-15T02:54:48;74339.28;;;-146.65;74.53
57094;BME280;42970;50.996;3.706;2023-04-15T02:57:13;74294.94;;;-146.65;74.68
57094;BME280;42970;50.996;3.706;2023-04-15T02:59:39;74339.28;;;-146.65;74.94
57094;BME280;42970;50.996;3.706;2023-04-15T03:02:05;74327.19;;;-146.65;75.09
57094;BME280;42970;50.996;3.706;2023-04-15T03:04:31;74300.97;;;-146.65;75.49
57094;BME280;42970;50.996;3.706;2023-04-15T03:07:03;74288.88;;;-146.65;75.38
57094;BME280;42970;50.996;3.706;2023-04-15T03:09:28;74303.00;;;-146.65;75.88
57094;BME280;42970;50.996;3.706;2023-04-15T03:11:54;74333.25;;;-146.65;76.25
57094;BME280;42970;50.996;3.706;2023-04-15T03:14:21;74339.28;;;-146.65;76.72
57094;BME280;42970;50.996;3.706;2023-04-15T03:16:46;74359.47;;;-146.65;77.01
57094;BME280;42970;50.996;3.706;2023-04-15T03:19:15;74377.59;;;-146.65;78.11
57094;BME280;42970;50.996;3.706;2023-04-15T03:21:41;74327.19;;;-146.65;77.55
57094;BME280;42970;50.996;3.706;2023-04-15T03:24:06;74351.41;;;-146.65;77.73
57094;BME280;42970;50.996;3.706;2023-04-15T03:26:31;74327.19;;;-146.65;77.97
57094;BME280;42970;50.996;3.706;2023-04-15T03:29:06;74335.25;;;-146.65;77.87
57094;BME280;42970;50.996;3.706;2023-04-15T03:31:50;74357.44;;;-146.65;78.13
57094;BME280;42970;50.996;3.706;2023-04-15T03:34:22;74355.44;;;-146.65;78.77
57094;BME280;42970;50.996;3.706;2023-04-15T03:36:47;74371.56;;;-146.65;79.04
57094;BME280;42970;50.996;3.706;2023-04-15T03:39:12;74331.22;;;-146.65;78.64
57094;BME280;42970;50.996;3.706;2023-04-15T03:41:38;74325.19;;;-146.65;78.52
57094;BME280;42970;50.996;3.706;2023-04-15T03:44:03;74333.25;;;-146.65;78.76
57094;BME280;42970;50.996;3.706;2023-04-15T03:46:28;74276.78;;;-146.65;78.13
57094;BME280;42970;50.996;3.706;2023-04-15T03:48:54;74311.06;;;-146.65;79.12
57094;BME280;42970;50.996;3.706;2023-04-15T03:51:19;74319.13;;;-146.65;78.48
57094;BME280;42970;50.996;3.706;2023-04-15T03:53:45;74349.38;;;-146.65;79.04
57094;BME280;42970;50.996;3.706;2023-04-15T03:56:10;74339.28;;;-146.65;78.91
57094;BME280;42970;50.996;3.706;2023-04-15T03:58:36;74377.59;;;-146.65;79.82
57094;BME280;42970;50.996;3.706;2023-04-15T04:01:01;74345.34;;;-146.65;78.58
57094;BME280;42970;50.996;3.706;2023-04-15T04:03:26;74315.09;;;-146.65;78.81
57094;BME280;42970;50.996;3.706;2023-04-15T04:05:52;74345.34;;;-146.65;80.29
57094;BME280;42970;50.996;3.706;2023-04-15T04:08:17;74395.75;;;-146.65;82.06
57094;BME280;42970;50.996;3.706;2023-04-15T04:10:43;74407.84;;;-146.65;82.77
57094;BME280;42970;50.996;3.706;2023-04-15T04:13:08;74468.34;;;-146.65;83.63
57094;BME280;42970;50.996;3.706;2023-04-15T04:15:34;74460.28;;;-146.65;84.98
57094;BME280;42970;50.996;3.706;2023-04-15T04:17:59;74452.22;;;-146.65;85.72
57094;BME280;42970;50.996;3.706;2023-04-15T04:20:25;74478.44;;;-146.65;86.30
57094;BME280;42970;50.996;3.706;2023-04-15T04:22:50;74478.44;;;-146.65;85.82
57094;BME280;42970;50.996;3.706;2023-04-15T04:25:15;74516.75;;;-146.65;85.48
57094;BME280;42970;50.996;3.706;2023-04-15T04:27:41;74488.50;;;-146.65;85.64
57094;BME280;42970;50.996;3.706;2023-04-15T04:30:07;74484.47;;;-146.65;85.45
57094;BME280;42970;50.996;3.706;2023-04-15T04:32:32;74524.81;;;-146.65;85.67
57094;BME280;42970;50.996;3.706;2023-04-15T04:34:57;74528.84;;;-146.65;85.96
57094;BME280;42970;50.996;3.706;2023-04-15T04:37:23;74510.69;;;-146.65;85.25
57094;BME280;42970;50.996;3.706;2023-04-15T04:39:48;74514.72;;;-146.65;85.45
57094;BME280;42970;50.996;3.706;2023-04-15T04:42:14;74474.41;;;-146.65;85.33
57094;BME280;42970;50.996;3.706;2023-04-15T04:44:39;74460.28;;;-146.65;83.88
57094;BME280;42970;50.996;3.706;2023-04-15T04:47:04;74504.66;;;-146.65;84.66
57094;BME280;42970;50.996;3.706;2023-04-15T04:49:31;74446.16;;;-146.65;84.75
57094;BME280;42970;50.996;3.706;2023-04-15T04:51:56;74492.56;;;-146.65;85.58
57094;BME280;42970;50.996;3.706;2023-04-15T04:54:22;74494.56;;;-146.65;84.24
57094;BME280;42970;50.996;3.706;2023-04-15T04:56:47;74464.31;;;-146.65;84.39
57094;BME280;42970;50.996;3.706;2023-04-15T04:59:14;74450.19;;;-146.65;83.69
57094;BME280;42970;50.996;3.706;2023-04-15T05:01:40;74434.06;;;-146.65;83.05
57094;BME280;42970;50.996;3.706;2023-04-15T05:04:05;74426.00;;;-146.65;83.37
57094;BME280;42970;50.996;3.706;2023-04-15T05:06:31;74464.31;;;-146.65;82.58
57094;BME280;42970;50.996;3.706;2023-04-15T05:08:57;74496.59;;;-146.65;82.72
57094;BME280;42970;50.996;3.706;2023-04-15T05:11:22;74470.38;;;-146.65;83.18
57094;BME280;42970;50.996;3.706;2023-04-15T05:13:47;74490.53;;;-146.65;82.82
57094;BME280;42970;50.996;3.706;2023-04-15T05:16:13;74484.47;;;-146.65;82.32
57094;BME280;42970;50.996;3.706;2023-04-15T05:18:38;74488.50;;;-146.65;82.27
57094;BME280;42970;50.996;3.706;2023-04-15T05:21:03;74476.41;;;-146.65;81.61
57094;BME280;42970;50.996;3.706;2023-04-15T05:23:29;74399.78;;;-146.65;80.52
57094;BME280;42970;50.996;3.706;2023-04-15T05:25:55;74407.84;;;-146.65;79.64
57094;BME280;42970;50.996;3.706;2023-04-15T05:28:20;74428.03;;;-146.65;80.25
57094;BME280;42970;50.996;3.706;2023-04-15T05:30:45;74452.22;;;-146.65;80.54
57094;BME280;42970;50.996;3.706;2023-04-15T05:33:11;74417.94;;;-146.65;79.70
57094;BME280;42970;50.996;3.706;2023-04-15T05:35:36;74385.69;;;-146.65;78.64
57094;BME280;42970;50.996;3.706;2023-04-15T05:38:01;74419.97;;;-146.65;78.36
57094;BME280;42970;50.996;3.706;2023-04-15T05:40:27;74401.81;;;-146.65;78.47
57094;BME280;42970;50.996;3.706;2023-04-15T05:42:53;74371.56;;;-146.65;77.91
57094;BME280;42970;50.996;3.706;2023-04-15T05:45:18;74371.56;;;-146.65;77.62
57094;BME280;42970;50.996;3.706;2023-04-15T05:47:44;74375.59;;;-146.65;78.00
57094;BME280;42970;50.996;3.706;2023-04-15T05:50:09;74419.97;;;-146.65;78.84
57094;BME280;42970;50.996;3.706;2023-04-15T05:52:35;74436.09;;;-146.65;79.20
57094;BME280;42970;50.996;3.706;2023-04-15T05:55:01;74399.78;;;-146.65;78.96
57094;BME280;42970;50.996;3.706;2023-04-15T05:57:26;74432.06;;;-146.65;79.07
57094;BME280;42970;50.996;3.706;2023-04-15T05:59:51;74373.56;;;-146.65;78.16
57094;BME280;42970;50.996;3.706;2023-04-15T06:02:17;74415.91;;;-146.65;78.53
57094;BME280;42970;50.996;3.706;2023-04-15T06:04:42;74403.81;;;-146.65;78.64
57094;BME280;42970;50.996;3.706;2023-04-15T06:07:08;74470.38;;;-146.65;78.51
57094;BME280;42970;50.996;3.706;2023-04-15T06:09:33;74452.22;;;-146.65;78.47
57094;BME280;42970;50.996;3.706;2023-04-15T06:11:59;74436.09;;;-146.65;78.08
57094;BME280;42970;50.996;3.706;2023-04-15T06:14:25;74440.13;;;-146.65;77.86
57094;BME280;42970;50.996;3.706;2023-04-15T06:16:53;74389.72;;;-146.65;77.62
57094;BME280;42970;50.996;3.706;2023-04-15T06:19:18;74419.97;;;-146.65;77.97
57094;BME280;42970;50.996;3.706;2023-04-15T06:21:44;74403.81;;;-146.65;77.56
57094;BME280;42970;50.996;3.706;2023-04-15T06:24:10;74383.66;;;-146.65;77.45
57094;BME280;42970;50.996;3.706;2023-04-15T06:26:35;74411.88;;;-146.65;77.93
57094;BME280;42970;50.996;3.706;2023-04-15T06:29:01;74419.97;;;-146.65;77.58
57094;BME280;42970;50.996;3.706;2023-04-15T06:31:26;74395.75;;;-146.65;77.29
57094;BME280;42970;50.996;3.706;2023-04-15T06:33:51;74361.47;;;-146.65;76.99
57094;BME280;42970;50.996;3.706;2023-04-15T06:36:17;74393.75;;;-146.65;76.17
57094;BME280;42970;50.996;3.706;2023-04-15T06:38:42;74385.69;;;-146.65;75.68
57094;BME280;42970;50.996;3.706;2023-04-15T06:41:07;74399.78;;;-146.65;76.52
57094;BME280;42970;50.996;3.706;2023-04-15T06:43:33;74383.66;;;-146.65;76.98
57094;BME280;42970;50.996;3.706;2023-04-15T06:45:58;74397.78;;;-146.65;76.68
57094;BME280;42970;50.996;3.706;2023-04-15T06:48:24;74385.69;;;-146.65;76.87
57094;BME280;42970;50.996;3.706;2023-04-15T06:50:49;74361.47;;;-146.65;76.88
57094;BME280;42970;50.996;3.706;2023-04-15T06:53:14;74353.41;;;-146.65;76.10
57094;BME280;42970;50.996;3.706;2023-04-15T06:55:40;74329.22;;;-146.65;75.35
57094;BME280;42970;50.996;3.706;2023-04-15T06:58:05;74331.22;;;-146.65;74.33
57094;BME280;42970;50.996;3.706;2023-04-15T07:00:31;74286.88;;;-146.65;73.83
57094;BME280;42970;50.996;3.706;2023-04-15T07:02:57;74276.78;;;-146.65;72.54
57094;BME280;42970;50.996;3.706;2023-04-15T07:05:23;74244.53;;;-146.65;71.55
57094;BME280;42970;50.996;3.706;2023-04-15T07:07:49;74274.78;;;-146.65;70.79
57094;BME280;42970;50.996;3.706;2023-04-15T07:10:15;74300.97;;;-146.65;70.78
57094;BME280;42970;50.996;3.706;2023-04-15T07:12:41;74264.69;;;-146.65;70.15
57094;BME280;42970;50.996;3.706;2023-04-15T07:15:06;74222.34;;;-146.65;68.72
57094;BME280;42970;50.996;3.706;2023-04-15T07:17:31;74250.56;;;-146.65;69.06
57094;BME280;42970;50.996;3.706;2023-04-15T07:19:57;74212.25;;;-146.65;68.56
57094;BME280;42970;50.996;3.706;2023-04-15T07:22:22;74266.69;;;-146.65;68.29
57094;BME280;42970;50.996;3.706;2023-04-15T07:24:48;74238.47;;;-146.65;68.26
57094;BME280;42970;50.996;3.706;2023-04-15T07:27:13;74266.69;;;-146.65;68.66
57094;BME280;42970;50.996;3.706;2023-04-15T07:29:38;74280.81;;;-146.65;68.43
57094;BME280;42970;50.996;3.706;2023-04-15T07:32:04;74296.94;;;-146.65;68.13
57094;BME280;42970;50.996;3.706;2023-04-15T07:34:29;74290.91;;;-146.65;68.02
57094;BME280;42970;50.996;3.706;2023-04-15T07:36:55;74305.00;;;-146.65;69.35
57094;BME280;42970;50.996;3.706;2023-04-15T07:39:21;74288.88;;;-146.65;70.21
57094;BME280;42970;50.996;3.706;2023-04-15T07:41:47;74323.16;;;-146.65;69.49
57094;BME280;42970;50.996;3.706;2023-04-15T07:44:13;74309.06;;;-146.65;69.21
57094;BME280;42970;50.996;3.706;2023-04-15T07:46:38;74397.78;;;-146.65;71.54
57094;BME280;42970;50.996;3.706;2023-04-15T07:49:04;74454.22;;;-146.65;66.81
57094;BME280;42970;50.996;3.706;2023-04-15T07:51:29;74419.97;;;-146.65;66.30
57094;BME280;42970;50.996;3.706;2023-04-15T07:53:56;74407.84;;;-146.65;63.85
57094;BME280;42970;50.996;3.706;2023-04-15T07:56:21;74397.78;;;-146.65;64.74
57094;BME280;42970;50.996;3.706;2023-04-15T07:58:47;74426.00;;;-146.65;64.83
57094;BME280;42970;50.996;3.706;2023-04-15T08:01:12;74419.97;;;-146.65;64.14
57094;BME280;42970;50.996;3.706;2023-04-15T08:03:37;74419.97;;;-146.65;61.91
57094;BME280;42970;50.996;3.706;2023-04-15T08:06:03;74421.97;;;-146.65;60.08
57094;BME280;42970;50.996;3.706;2023-04-15T08:08:28;74472.38;;;-146.65;59.90
57094;BME280;42970;50.996;3.706;2023-04-15T08:10:54;74468.34;;;-146.65;60.96
57094;BME280;42970;50.996;3.706;2023-04-15T08:13:19;74415.91;;;-146.65;60.21
57094;BME280;42970;50.996;3.706;2023-04-15T08:15:45;74413.91;;;-146.65;59.35
57094;BME280;42970;50.996;3.706;2023-04-15T08:18:10;74319.13;;;-146.65;59.65
57094;BME280;42970;50.996;3.706;2023-04-15T08:20:36;74355.44;;;-146.65;58.98
57094;BME280;42970;50.996;3.706;2023-04-15T08:23:01;74363.50;;;-146.65;58.74
57094;BME280;42970;50.996;3.706;2023-04-15T08:25:27;74321.16;;;-146.65;57.84
57094;BME280;42970;50.996;3.706;2023-04-15T08:27:56;74309.06;;;-146.65;57.30
57094;BME280;42970;50.996;3.706;2023-04-15T08:30:22;74355.44;;;-146.65;57.13
57094;BME280;42970;50.996;3.706;2023-04-15T08:32:48;74238.47;;;-146.65;55.73
57094;BME280;42970;50.996;3.706;2023-04-15T08:35:13;74347.38;;;-146.65;55.62
57094;BME280;42970;50.996;3.706;2023-04-15T08:37:38;74254.59;;;-146.65;54.48
57094;BME280;42970;50.996;3.706;2023-04-15T08:40:04;74307.03;;;-146.65;53.42
57094;BME280;42970;50.996;3.706;2023-04-15T08:42:35;74248.56;;;-146.65;54.91
57094;BME280;42970;50.996;3.706;2023-04-15T08:45:02;74363.50;;;-146.65;53.70
57094;BME280;42970;50.996;3.706;2023-04-15T08:47:28;74240.50;;;-146.65;54.53
57094;BME280;42970;50.996;3.706;2023-04-15T08:49:54;74214.28;;;-146.65;53.72
57094;BME280;42970;50.996;3.706;2023-04-15T08:52:23;74186.06;;;-146.65;52.33
57094;BME280;42970;50.996;3.706;2023-04-15T08:54:49;74228.41;;;-146.65;50.50
57094;BME280;42970;50.996;3.706;2023-04-15T08:57:14;74252.59;;;-146.65;53.06
57094;BME280;42970;50.996;3.706;2023-04-15T08:59:40;74214.28;;;-146.65;51.68
57094;BME280;42970;50.996;3.706;2023-04-15T09:02:06;74153.78;;;-146.65;53.41
57094;BME280;42970;50.996;3.706;2023-04-15T09:04:32;74157.81;;;-146.65;51.20
57094;BME280;42970;50.996;3.706;2023-04-15T09:06:57;74266.69;;;-146.65;48.62
57094;BME280;42970;50.996;3.706;2023-04-15T09:09:23;74218.31;;;-146.65;48.47
57094;BME280;42970;50.996;3.706;2023-04-15T09:11:54;74341.31;;;-146.65;48.10
57094;BME280;42970;50.996;3.706;2023-04-15T09:14:20;74280.81;;;-146.65;49.48
57094;BME280;42970;50.996;3.706;2023-04-15T09:16:57;74218.31;;;-146.65;49.55
57094;BME280;42970;50.996;3.706;2023-04-15T09:19:55;74222.34;;;-146.65;48.15
57094;BME280;42970;50.996;3.706;2023-04-15T09:22:14;74143.72;;;-146.65;47.98
57094;BME280;42970;50.996;3.706;2023-04-15T09:24:39;74095.31;;;-146.65;46.96
57094;BME280;42970;50.996;3.706;2023-04-15T09:27:07;74161.84;;;-146.65;47.17
57094;BME280;42970;50.996;3.706;2023-04-15T09:29:32;74125.56;;;-146.65;46.62
57094;BME280;42970;50.996;3.706;2023-04-15T09:32:19;74109.44;;;-146.65;46.04
57094;BME280;42970;50.996;3.706;2023-04-15T09:34:45;74097.34;;;-146.65;46.11
57094;BME280;42970;50.996;3.706;2023-04-15T09:37:10;74101.38;;;-146.65;46.51
57094;BME280;42970;50.996;3.706;2023-04-15T09:39:47;74105.41;;;-146.65;45.23
57094;BME280;42970;50.996;3.706;2023-04-15T09:42:14;74040.88;;;-146.65;45.77
57094;BME280;42970;50.996;3.706;2023-04-15T09:44:39;74055.00;;;-146.65;45.70
57094;BME280;42970;50.996;3.706;2023-04-15T09:47:05;74077.16;;;-146.65;46.00
57094;BME280;42970;50.996;3.706;2023-04-15T09:49:30;74103.38;;;-146.65;46.00
57094;BME280;42970;50.996;3.706;2023-04-15T09:51:57;74131.59;;;-146.65;46.67
57094;BME280;42970;50.996;3.706;2023-04-15T09:54:23;74091.28;;;-146.65;46.37
57094;BME280;42970;50.996;3.706;2023-04-15T09:56:49;74105.41;;;-146.65;46.46
57094;BME280;42970;50.996;3.706;2023-04-15T09:59:14;74210.25;;;-146.65;46.28
57094;BME280;42970;50.996;3.706;2023-04-15T10:01:40;74089.25;;;-146.65;45.96
57094;BME280;42970;50.996;3.706;2023-04-15T10:04:06;74095.31;;;-146.65;46.11
57094;BME280;42970;50.996;3.706;2023-04-15T10:06:32;74149.75;;;-146.65;46.29
57094;BME280;42970;50.996;3.706;2023-04-15T10:08:58;74048.94;;;-146.65;46.54
57094;BME280;42970;50.996;3.706;2023-04-15T10:11:27;74127.56;;;-146.65;44.85
57094;BME280;42970;50.996;3.706;2023-04-15T10:13:52;74117.50;;;-146.65;46.54
57094;BME280;42970;50.996;3.706;2023-04-15T10:16:18;74109.44;;;-146.65;46.05
57094;BME280;42970;50.996;3.706;2023-04-15T10:18:45;74137.66;;;-146.65;45.72
57094;BME280;42970;50.996;3.706;2023-04-15T10:21:11;74141.69;;;-146.65;46.35
57094;BME280;42970;50.996;3.706;2023-04-15T10:23:42;74073.13;;;-146.65;46.35
57094;BME280;42970;50.996;3.706;2023-04-15T10:26:08;74087.25;;;-146.65;46.66
57094;BME280;42970;50.996;3.706;2023-04-15T10:28:34;74077.16;;;-146.65;45.25
57094;BME280;42970;50.996;3.706;2023-04-15T10:30:59;73972.31;;;-146.65;44.67
57094;BME280;42970;50.996;3.706;2023-04-15T10:33:25;73958.22;;;-146.65;44.40
57094;BME280;42970;50.996;3.706;2023-04-15T10:35:52;73849.34;;;-146.65;43.87
57094;BME280;42970;50.996;3.706;2023-04-15T10:38:34;73821.09;;;-146.65;42.56
57094;BME280;42970;50.996;3.706;2023-04-15T10:41:19;73811.03;;;-146.65;41.69
57094;BME280;42970;50.996;3.706;2023-04-15T10:46:24;73839.25;;;-146.65;41.96
57094;BME280;42970;50.996;3.706;2023-04-15T10:49:00;73929.97;;;-146.65;41.47
57094;BME280;42970;50.996;3.706;2023-04-15T10:51:30;73849.34;;;-146.65;39.83
57094;BME280;42970;50.996;3.706;2023-04-15T10:53:57;73950.13;;;-146.65;40.08
57094;BME280;42970;50.996;3.706;2023-04-15T10:56:23;73948.13;;;-146.65;38.28
57094;BME280;42970;50.996;3.706;2023-04-15T10:58:48;73925.94;;;-146.65;37.57
57094;BME280;42970;50.996;3.706;2023-04-15T11:01:14;73885.63;;;-146.65;36.86
57094;BME280;42970;50.996;3.706;2023-04-15T11:03:40;73843.28;;;-146.65;37.39
57094;BME280;42970;50.996;3.706;2023-04-15T11:06:06;73815.06;;;-146.65;36.70
57094;BME280;42970;50.996;3.706;2023-04-15T11:11:16;73722.31;;;-146.65;35.48
57094;BME280;42970;50.996;3.706;2023-04-15T11:13:48;73843.28;;;-146.65;34.75
57094;BME280;42970;50.996;3.706;2023-04-15T11:16:14;73936.03;;;-146.65;35.54
57094;BME280;42970;50.996;3.706;2023-04-15T11:18:40;73895.69;;;-146.65;36.33
57094;BME280;42970;50.996;3.706;2023-04-15T11:21:06;73907.81;;;-146.65;36.19
57094;BME280;42970;50.996;3.706;2023-04-15T11:23:39;73879.56;;;-146.65;35.53
57094;BME280;42970;50.996;3.706;2023-04-15T11:26:06;73847.31;;;-146.65;34.12
57094;BME280;42970;50.996;3.706;2023-04-15T11:28:33;73686.03;;;-146.65;33.78
57094;BME280;42970;50.996;3.706;2023-04-15T11:31:15;73851.34;;;-146.65;32.61
57094;BME280;42970;50.996;3.706;2023-04-15T11:33:45;73861.44;;;-146.65;33.38
57094;BME280;42970;50.996;3.706;2023-04-15T11:36:11;73861.44;;;-146.65;33.02
57094;BME280;42970;50.996;3.706;2023-04-15T11:38:36;73839.25;;;-146.65;33.32
57094;BME280;42970;50.996;3.706;2023-04-15T11:41:02;73855.38;;;-146.65;33.23
57094;BME280;42970;50.996;3.706;2023-04-15T11:43:27;73879.56;;;-146.65;33.75
57094;BME280;42970;50.996;3.706;2023-04-15T11:45:56;73802.97;;;-146.65;32.04
57094;BME280;42970;50.996;3.706;2023-04-15T11:48:23;73817.06;;;-146.65;33.78
57094;BME280;42970;50.996;3.706;2023-04-15T11:50:55;73879.56;;;-146.65;33.15
57094;BME280;42970;50.996;3.706;2023-04-15T11:53:21;73845.31;;;-146.65;31.04
57094;BME280;42970;50.996;3.706;2023-04-15T11:55:48;73927.97;;;-146.65;30.97
57094;BME280;42970;50.996;3.706;2023-04-15T11:58:15;73849.34;;;-146.65;30.94
57094;BME280;42970;50.996;3.706;2023-04-15T12:00:44;73718.28;;;-146.65;30.78
57094;BME280;42970;50.996;3.706;2023-04-15T12:03:10;73756.59;;;-146.65;29.81
57094;BME280;42970;50.996;3.706;2023-04-15T12:05:36;73855.38;;;-146.65;29.22
57094;BME280;42970;50.996;3.706;2023-04-15T12:08:01;73581.19;;;-146.65;28.50
57094;BME280;42970;50.996;3.706;2023-04-15T12:10:26;73807.00;;;-146.65;28.40
57094;BME280;42970;50.996;3.706;2023-04-15T12:12:52;73754.56;;;-146.65;28.95
57094;BME280;42970;50.996;3.706;2023-04-15T12:15:20;73714.25;;;-146.65;31.08
57094;BME280;42970;50.996;3.706;2023-04-15T12:17:46;73679.97;;;-146.65;29.84
57094;BME280;42970;50.996;3.706;2023-04-15T12:20:11;73895.69;;;-146.65;29.65
57094;BME280;42970;50.996;3.706;2023-04-15T12:22:37;73696.09;;;-146.65;29.06
57094;BME280;42970;50.996;3.706;2023-04-15T12:25:02;73754.56;;;-146.65;27.44
57094;BME280;42970;50.996;3.706;2023-04-15T12:27:30;73736.44;;;-146.65;29.64
57094;BME280;42970;50.996;3.706;2023-04-15T12:30:14;73653.75;;;-146.65;28.00
57094;BME280;42970;50.996;3.706;2023-04-15T12:32:39;73486.44;;;-146.65;27.75
57094;BME280;42970;50.996;3.706;2023-04-15T12:38:07;73601.34;;;-146.65;29.70
57094;BME280;42970;50.996;3.706;2023-04-15T12:40:34;73688.03;;;-146.65;29.70
57094;BME280;42970;50.996;3.706;2023-04-15T12:43:00;73595.31;;;-146.65;28.77
57094;BME280;42970;50.996;3.706;2023-04-15T12:45:25;73839.25;;;-146.65;29.38